Time;durP1;ratioP1;P1;durP2;ratioP2;P2;SDS_P1;SDS_P2;PMS_P1;PMS_P2;Temp;Humidity;BMP_temperature;BMP_pressure;BME280_temperature;BME280_humidity;BME280_pressure;Samples;Min_cycle;Max_cycle;Signal;HPM_P1;HPM_P2
2021/08/24 00:00:08;;;;;;;55.25;33.75;;;;;;;18.44;66.16;95835.63;5067630;28;20064;-66
2021/08/24 00:02:33;;;;;;;44.70;28.77;;;;;;;18.01;66.91;95863.03;5068869;28;20486;-65
2021/08/24 00:04:59;;;;;;;51.33;33.13;;;;;;;17.97;67.60;95808.31;5069073;28;20055;-65
2021/08/24 00:07:24;;;;;;;66.70;37.47;;;;;;;18.85;65.46;95841.91;5067838;28;20074;-66
2021/08/24 00:09:49;;;;;;;70.15;37.88;;;;;;;19.16;65.77;95867.47;5071495;28;20107;-66
2021/08/24 00:12:16;;;;;;;57.17;34.70;;;;;;;18.48;66.50;95878.03;5069347;28;20037;-65
2021/08/24 00:14:42;;;;;;;41.08;27.38;;;;;;;17.52;68.77;95864.78;5068614;28;20719;-65
2021/08/24 00:17:07;;;;;;;51.25;32.78;;;;;;;17.41;69.65;95842.91;5067830;28;20049;-65
2021/08/24 00:19:32;;;;;;;54.88;33.40;;;;;;;17.29;69.20;95815.94;5068570;28;20024;-65
2021/08/24 00:21:58;;;;;;;48.08;31.92;;;;;;;18.16;67.60;95873.16;5070997;28;20024;-65
2021/08/24 00:24:23;;;;;;;59.25;35.35;;;;;;;17.79;67.52;95817.69;5068566;28;20040;-65
2021/08/24 00:26:49;;;;;;;44.13;30.83;;;;;;;17.53;69.00;95839.47;5066707;28;20064;-65
2021/08/24 00:29:14;;;;;;;57.90;33.65;;;;;;;18.47;65.99;95860.28;5068264;28;20048;-65
2021/08/24 00:31:40;;;;;;;47.53;30.73;;;;;;;18.53;66.75;95864.34;5067457;28;20773;-65
2021/08/24 00:34:05;;;;;;;42.72;29.40;;;;;;;18.16;66.81;95857.00;5070656;28;20100;-65
2021/08/24 00:36:31;;;;;;;49.60;32.35;;;;;;;18.45;66.92;95852.56;5068098;28;20047;-65
2021/08/24 00:38:57;;;;;;;40.88;28.88;;;;;;;17.96;67.24;95865.94;5054111;28;20037;-65
2021/08/24 00:41:22;;;;;;;37.33;28.08;;;;;;;17.99;67.31;95822.22;5047283;28;20037;-64
2021/08/24 00:43:48;;;;;;;33.08;24.00;;;;;;;17.62;68.85;95875.94;5051893;28;20117;-65
2021/08/24 00:46:48;;;;;;;36.85;26.95;;;;;;;17.37;69.77;95885.00;5069230;28;20058;-65
2021/08/24 00:49:24;;;;;;;45.95;28.08;;;;;;;17.80;67.78;95816.56;5065091;28;20051;-65
2021/08/24 00:52:08;;;;;;;36.53;26.50;;;;;;;17.82;67.50;95815.13;5068758;28;20127;-65
2021/08/24 00:54:35;;;;;;;40.40;27.05;;;;;;;18.34;65.38;95836.06;5067563;28;20052;-65
2021/08/24 00:57:07;;;;;;;17.02;15.25;;;;;;;16.68;70.44;95885.41;5068061;28;20045;-65
2021/08/24 00:59:33;;;;;;;;;;;;;;;17.36;69.51;95881.53;5067439;28;20037;-65
2021/08/24 01:01:58;;;;;;;20.23;18.08;;;;;;;17.68;67.02;95828.84;5068150;28;19927;-65
2021/08/24 01:04:25;;;;;;;15.45;13.70;;;;;;;16.38;70.66;95855.88;5067357;28;20039;-66
2021/08/24 01:07:04;;;;;;;15.57;13.65;;;;;;;17.23;69.71;95879.09;5070156;28;20020;-65
2021/08/24 01:10:02;;;;;;;16.83;15.13;;;;;;;17.80;66.95;95870.41;5068080;28;20032;-65
2021/08/24 01:12:46;;;;;;;16.70;15.05;;;;;;;17.79;67.09;95868.84;5068065;28;20036;-65
2021/08/24 01:15:36;;;;;;;18.23;16.27;;;;;;;18.73;65.48;95862.69;5061996;28;20036;-65
2021/08/24 01:18:20;;;;;;;19.08;17.20;;;;;;;18.56;64.86;95861.75;5067551;28;20075;-65
2021/08/24 01:21:23;;;;;;;32.28;22.20;;;;;;;18.92;64.11;95868.28;5067713;28;20052;-65
2021/08/24 01:23:53;;;;;;;17.02;15.45;;;;;;;17.88;66.51;95870.31;5067986;28;20036;-65
2021/08/24 01:26:37;;;;;;;19.90;17.67;;;;;;;18.61;65.54;95871.53;5068036;28;20051;-65
2021/08/24 01:29:31;;;;;;;23.15;18.45;;;;;;;18.24;64.94;95849.97;5068085;28;20393;-65
2021/08/24 01:32:06;;;;;;;18.20;15.80;;;;;;;18.32;65.90;95880.59;5066311;28;20448;-65
2021/08/24 01:34:59;;;;;;;17.70;15.95;;;;;;;17.07;68.58;95868.94;5047746;28;20025;-65
2021/08/24 01:37:54;;;;;;;15.35;13.88;;;;;;;17.41;67.84;95881.34;5046450;28;20029;-66
2021/08/24 01:40:36;;;;;;;14.50;13.05;;;;;;;17.95;66.31;95866.28;5052836;28;20112;-65
2021/08/24 01:43:05;;;;;;;16.20;14.52;;;;;;;17.98;66.14;95871.81;5052520;28;20033;-66
2021/08/24 01:45:39;;;;;;;13.38;12.35;;;;;;;17.91;65.50;95871.53;5057177;28;20024;-65
2021/08/24 01:48:14;;;;;;;10.98;10.07;;;;;;;17.36;67.50;95878.84;5069878;28;20043;-67
2021/08/24 01:50:44;;;;;;;13.05;11.80;;;;;;;18.32;65.65;95870.59;5071754;28;20043;-66
2021/08/24 01:53:35;;;;;;;11.40;10.38;;;;;;;18.10;65.46;95858.34;5072040;28;20037;-67
2021/08/24 01:56:16;;;;;;;11.07;10.07;;;;;;;18.14;65.18;95845.03;5065977;28;20064;-67
2021/08/24 01:58:54;;;;;;;10.73;9.73;;;;;;;17.93;66.01;95864.72;5054529;28;20489;-67
2021/08/24 02:01:28;;;;;;;12.65;11.38;;;;;;;18.39;65.45;95870.06;5072850;28;20119;-67
2021/08/24 02:03:59;;;;;;;11.32;10.23;;;;;;;18.13;64.91;95854.22;5070396;28;20074;-68
2021/08/24 02:06:30;;;;;;;10.10;9.07;;;;;;;17.50;64.97;95848.97;5069381;28;20033;-68
2021/08/24 02:08:57;;;;;;;11.45;8.82;;;;;;;17.18;67.12;95865.84;5071301;28;20033;-67
2021/08/24 02:11:29;;;;;;;10.30;9.30;;;;;;;17.69;66.30;95870.00;5071710;28;20032;-67
2021/08/24 02:13:58;;;;;;;10.23;9.35;;;;;;;17.78;66.08;95883.41;5071373;28;20091;-67
2021/08/24 02:16:26;;;;;;;10.02;7.22;;;;;;;17.90;65.13;95883.44;5069629;28;20520;-67
2021/08/24 02:19:03;;;;;;;9.40;8.60;;;;;;;18.31;64.58;95873.66;5072190;28;20028;-67
2021/08/24 02:21:37;;;;;;;9.20;8.38;;;;;;;17.70;64.47;95846.56;5069721;28;20032;-67
2021/08/24 02:24:05;;;;;;;7.82;6.97;;;;;;;17.14;66.77;95845.00;5071117;28;20036;-67
2021/08/24 02:26:33;;;;;;;6.88;6.28;;;;;;;17.76;65.30;95878.38;5070884;28;20066;-67
2021/08/24 02:29:00;;;;;;;4.63;4.22;;;;;;;17.40;66.16;95860.13;5071043;28;20059;-67
2021/08/24 02:31:37;;;;;;;5.63;4.78;;;;;;;17.35;66.62;95855.75;5070191;28;20028;-67
2021/08/24 02:34:14;;;;;;;4.40;4.10;;;;;;;17.21;66.63;95863.31;5072955;28;20111;-67
2021/08/24 02:36:49;;;;;;;4.18;3.88;;;;;;;16.93;66.78;95867.59;5070696;28;20040;-66
2021/08/24 02:39:25;;;;;;;4.18;3.88;;;;;;;17.66;65.77;95870.69;5069757;28;20128;-67
2021/08/24 02:42:03;;;;;;;4.85;4.30;;;;;;;17.72;65.64;95872.03;5071129;28;20111;-67
2021/08/24 02:44:43;;;;;;;4.13;3.80;;;;;;;17.03;66.80;95872.59;5070590;28;20044;-67
2021/08/24 02:47:09;;;;;;;6.72;4.65;;;;;;;17.38;66.01;95857.00;5069735;28;20494;-67
2021/08/24 02:49:35;;;;;;;4.10;3.80;;;;;;;17.67;65.51;95873.03;5080861;22;20083;-64
2021/08/24 02:52:04;;;;;;;4.47;4.07;;;;;;;17.79;65.35;95866.13;5031760;28;20034;-63
2021/08/24 02:54:37;;;;;;;4.63;4.22;;;;;;;17.71;63.87;95853.50;5030045;28;20124;-64
2021/08/24 02:57:04;;;;;;;4.28;3.88;;;;;;;17.17;66.19;95853.53;5030490;28;20091;-64
2021/08/24 02:59:30;;;;;;;4.68;4.28;;;;;;;18.60;63.37;95854.56;5030738;28;20089;-64
2021/08/24 03:01:56;;;;;;;4.57;4.10;;;;;;;17.59;65.14;95860.44;5030242;28;20065;-63
2021/08/24 03:04:23;;;;;;;4.78;4.30;;;;;;;17.55;65.68;95867.59;5030364;28;20021;-65
2021/08/24 03:06:53;;;;;;;4.78;4.35;;;;;;;17.49;65.37;95858.16;5032223;28;20391;-64
2021/08/24 03:09:22;;;;;;;4.35;4.00;;;;;;;17.62;65.40;95859.78;5030701;28;20049;-63
2021/08/24 03:11:56;;;;;;;3.88;3.45;;;;;;;17.13;66.26;95856.88;5030674;28;20403;-63
2021/08/24 03:14:27;;;;;;;5.15;4.18;;;;;;;17.98;64.19;95850.28;5030367;28;20050;-63
2021/08/24 03:17:03;;;;;;;4.40;4.10;;;;;;;18.22;63.05;95863.00;5029566;28;20077;-63
2021/08/24 03:19:32;;;;;;;4.85;4.45;;;;;;;17.88;63.20;95866.84;5029123;28;20664;-64
2021/08/24 03:22:01;;;;;;;4.88;4.40;;;;;;;17.76;63.65;95843.38;5032162;28;20086;-63
2021/08/24 03:24:27;;;;;;;4.72;3.97;;;;;;;17.73;63.99;95856.72;5028336;28;20061;-63
2021/08/24 03:26:53;;;;;;;5.28;4.38;;;;;;;18.64;61.99;95836.63;5029947;28;20044;-64
2021/08/24 03:29:22;;;;;;;4.50;4.20;;;;;;;18.02;63.26;95856.56;5028882;28;20132;-64
2021/08/24 03:31:52;;;;;;;7.03;4.93;;;;;;;18.12;62.66;95868.81;5029777;28;20518;-64
2021/08/24 03:34:18;;;;;;;4.15;3.75;;;;;;;17.89;63.82;95857.66;5031673;28;20049;-63
2021/08/24 03:36:43;;;;;;;6.55;4.25;;;;;;;18.23;63.39;95851.09;5028423;28;20128;-64
2021/08/24 03:39:08;;;;;;;5.25;3.70;;;;;;;18.10;62.77;95857.56;5029869;28;20129;-63
2021/08/24 03:41:34;;;;;;;4.32;3.85;;;;;;;18.13;62.61;95867.69;5029884;28;20044;-63
2021/08/24 03:43:59;;;;;;;4.55;3.67;;;;;;;18.41;61.41;95862.44;5030069;28;20033;-64
2021/08/24 03:46:25;;;;;;;3.78;3.35;;;;;;;17.19;64.90;95875.47;5028884;28;20021;-64
2021/08/24 03:48:50;;;;;;;3.88;3.47;;;;;;;17.46;63.77;95860.72;5031519;28;20017;-63
2021/08/24 03:51:15;;;;;;;4.28;3.85;;;;;;;17.55;63.63;95832.63;5029735;28;20118;-63
2021/08/24 03:53:40;;;;;;;3.92;3.63;;;;;;;17.59;63.70;95865.81;5029805;28;20061;-63
2021/08/24 03:56:07;;;;;;;5.10;3.90;;;;;;;17.73;64.21;95883.63;5029273;28;20119;-65
2021/08/24 03:58:34;;;;;;;6.07;4.03;;;;;;;17.71;63.62;95888.50;5029501;28;20505;-64
2021/08/24 04:00:59;;;;;;;5.97;4.20;;;;;;;18.26;62.50;95871.16;5030196;28;20029;-64
2021/08/24 04:03:26;;;;;;;4.38;3.97;;;;;;;18.03;63.37;95874.28;5029267;28;20032;-64
2021/08/24 04:06:00;;;;;;;5.15;3.92;;;;;;;17.84;63.54;95887.47;5029280;28;20040;-64
2021/08/24 04:08:25;;;;;;;4.88;4.32;;;;;;;17.99;63.22;95878.75;5029415;28;20630;-64
2021/08/24 04:10:51;;;;;;;6.20;4.40;;;;;;;17.94;62.70;95881.66;5029350;28;20032;-64
2021/08/24 04:13:17;;;;;;;4.35;3.95;;;;;;;17.78;63.35;95886.88;5031293;28;20025;-63
2021/08/24 04:15:42;;;;;;;5.60;4.53;;;;;;;17.63;64.18;95887.47;5028453;28;20398;-62
2021/08/24 04:18:07;;;;;;;5.72;4.55;;;;;;;17.51;63.64;95882.06;5028198;28;20040;-66
2021/08/24 04:20:33;;;;;;;5.50;5.00;;;;;;;17.90;63.77;95896.88;5028967;28;20041;-63
2021/08/24 04:22:58;;;;;;;7.35;4.55;;;;;;;17.74;63.47;95887.88;5028878;28;20087;-63
2021/08/24 04:25:24;;;;;;;4.97;4.47;;;;;;;17.91;63.52;95893.88;5028925;28;20025;-63
2021/08/24 04:27:50;;;;;;;6.53;4.63;;;;;;;17.83;63.16;95886.69;5030720;28;20049;-64
2021/08/24 04:30:15;;;;;;;5.63;4.53;;;;;;;17.86;63.18;95895.97;5029164;28;20080;-64
2021/08/24 04:32:44;;;;;;;5.28;4.70;;;;;;;17.37;63.63;95898.44;5028479;28;20042;-67
2021/08/24 04:35:10;;;;;;;5.60;4.55;;;;;;;17.29;64.20;95894.69;5026573;28;20064;-65
2021/08/24 04:37:35;;;;;;;5.93;4.38;;;;;;;17.19;64.40;95905.06;5028939;28;20025;-65
2021/08/24 04:40:01;;;;;;;5.03;4.28;;;;;;;17.62;63.80;95881.31;5030858;28;20174;-66
2021/08/24 04:42:26;;;;;;;9.30;5.70;;;;;;;16.95;64.14;95889.59;5028887;28;20663;-66
2021/08/24 04:44:51;;;;;;;6.93;6.22;;;;;;;17.60;63.83;95901.56;5028669;28;20041;-67
2021/08/24 04:47:17;;;;;;;7.20;6.40;;;;;;;17.13;64.94;95902.56;5027984;28;20053;-64
2021/08/24 04:49:42;;;;;;;7.53;6.80;;;;;;;17.12;65.32;95909.06;5028503;28;20037;-64
2021/08/24 04:52:08;;;;;;;7.40;6.65;;;;;;;16.97;65.75;95896.19;5030739;28;20021;-64
2021/08/24 04:54:34;;;;;;;7.82;7.07;;;;;;;17.49;64.10;95895.81;5028357;28;20488;-64
2021/08/24 04:57:04;;;;;;;8.18;7.47;;;;;;;17.88;63.83;95913.38;5028046;28;20045;-64
2021/08/24 04:59:29;;;;;;;7.72;6.85;;;;;;;18.18;62.80;95902.47;5028514;28;20033;-64
2021/08/24 05:01:55;;;;;;;7.47;6.65;;;;;;;18.19;62.17;95901.34;5027986;28;20505;-64
2021/08/24 05:04:20;;;;;;;8.65;7.78;;;;;;;18.29;62.79;95897.44;5030495;28;20026;-64
2021/08/24 05:06:45;;;;;;;7.80;7.10;;;;;;;18.37;62.42;95899.22;5028159;28;20137;-64
2021/08/24 05:09:11;;;;;;;8.02;6.53;;;;;;;18.52;61.76;95901.25;5028540;28;20048;-64
2021/08/24 05:11:36;;;;;;;8.50;7.05;;;;;;;18.24;62.60;95882.28;5028525;28;20091;-63
2021/08/24 05:14:02;;;;;;;8.18;6.43;;;;;;;18.13;62.66;95916.16;5028333;28;20037;-64
2021/08/24 05:16:28;;;;;;;7.47;6.78;;;;;;;17.55;63.08;95913.31;5027362;28;20021;-64
2021/08/24 05:18:53;;;;;;;10.23;7.28;;;;;;;18.18;62.09;95908.66;5030074;28;20021;-63
2021/08/24 05:21:18;;;;;;;7.25;6.43;;;;;;;17.48;63.87;95918.44;5028167;28;20144;-64
2021/08/24 05:23:44;;;;;;;11.68;7.40;;;;;;;17.35;65.32;95903.34;5028415;28;20065;-65
2021/08/24 05:26:12;;;;;;;8.15;6.20;;;;;;;17.71;63.98;95920.78;5027808;28;20080;-75
2021/08/24 05:28:38;;;;;;;8.90;6.95;;;;;;;18.01;63.04;95908.03;5028156;28;20030;-71
2021/08/24 05:31:03;;;;;;;10.48;7.63;;;;;;;18.63;62.58;95907.81;5029782;28;20035;-66
2021/08/24 05:33:31;;;;;;;14.15;7.00;;;;;;;17.95;62.59;95917.44;5028161;28;20646;-68
2021/08/24 05:35:56;;;;;;;7.18;6.57;;;;;;;17.33;64.59;95919.81;5027766;28;20042;-69
2021/08/24 05:38:22;;;;;;;7.88;7.15;;;;;;;18.28;63.07;95928.19;5028114;28;20099;-70
2021/08/24 05:40:47;;;;;;;9.80;7.68;;;;;;;18.12;61.53;95914.59;5028272;28;20562;-68
2021/08/24 05:43:12;;;;;;;8.00;7.07;;;;;;;18.09;63.76;95917.94;5030450;28;20432;-72
2021/08/24 05:45:37;;;;;;;14.25;7.75;;;;;;;18.02;63.26;95923.88;5026924;28;20068;-66
2021/08/24 05:48:03;;;;;;;9.82;7.90;;;;;;;17.88;63.47;95931.44;5027394;28;20124;-73
2021/08/24 05:50:29;;;;;;;8.93;7.93;;;;;;;17.94;62.85;95924.72;5026577;28;20121;-69
2021/08/24 05:52:54;;;;;;;8.80;7.32;;;;;;;17.50;64.16;95918.09;5028381;28;20529;-70
2021/08/24 05:55:19;;;;;;;14.90;8.43;;;;;;;17.99;63.13;95932.59;5029972;28;20029;-69
2021/08/24 05:57:45;;;;;;;8.65;7.95;;;;;;;18.44;61.79;95932.59;5027647;28;20430;-67
2021/08/24 06:00:11;;;;;;;9.02;8.13;;;;;;;18.16;62.35;95928.94;5028515;28;20426;-67
2021/08/24 06:02:37;;;;;;;9.02;8.18;;;;;;;18.87;61.50;95938.59;5028077;28;20037;-67
2021/08/24 06:05:05;;;;;;;8.00;7.30;;;;;;;17.67;63.04;95939.50;5027818;28;20073;-70
2021/08/24 06:07:31;;;;;;;8.90;8.10;;;;;;;18.21;62.79;95936.78;5027471;28;20028;-67
2021/08/24 06:09:57;;;;;;;11.48;10.35;;;;;;;18.84;60.42;95931.97;5028478;28;20089;-63
2021/08/24 06:12:23;;;;;;;12.50;11.25;;;;;;;18.83;60.99;95937.69;5028018;28;20048;-63
2021/08/24 06:14:48;;;;;;;11.43;10.18;;;;;;;19.25;60.78;95927.44;5027810;28;20106;-68
2021/08/24 06:17:14;;;;;;;10.20;9.20;;;;;;;18.29;60.57;95952.09;5034972;28;20046;-66
2021/08/24 06:19:39;;;;;;;11.27;9.98;;;;;;;17.96;62.25;95935.16;5027589;28;20025;-65
2021/08/24 06:22:04;;;;;;;10.73;9.70;;;;;;;17.87;62.92;95937.94;5029593;28;20013;-65
2021/08/24 06:24:34;;;;;;;12.88;9.48;;;;;;;18.92;60.79;95938.38;5028264;28;20141;-65
2021/08/24 06:27:00;;;;;;;10.40;9.50;;;;;;;18.66;61.11;95944.84;5030947;28;20553;-65
2021/08/24 06:29:26;;;;;;;10.77;9.60;;;;;;;18.37;61.87;95924.25;5031293;28;20045;-66
2021/08/24 06:31:53;;;;;;;11.00;9.93;;;;;;;19.28;60.66;95942.16;5030909;28;20037;-65
2021/08/24 06:34:19;;;;;;;10.55;9.52;;;;;;;19.07;60.82;95951.16;5032442;28;20638;-65
2021/08/24 06:36:46;;;;;;;10.68;9.75;;;;;;;19.62;60.10;95941.66;5030786;28;20030;-65
2021/08/24 06:39:11;;;;;;;8.95;8.25;;;;;;;18.61;60.28;95939.69;5031099;28;20040;-65
2021/08/24 06:41:38;;;;;;;9.95;9.05;;;;;;;18.59;61.94;95950.00;5030994;28;20406;-66
2021/08/24 06:44:05;;;;;;;10.15;9.25;;;;;;;17.94;63.35;95954.34;5030803;28;20034;-65
2021/08/24 06:46:31;;;;;;;9.30;8.50;;;;;;;17.95;62.90;95955.91;5030112;28;20045;-65
2021/08/24 06:48:56;;;;;;;10.68;9.73;;;;;;;18.69;61.60;95938.81;5032774;28;20604;-65
2021/08/24 06:51:22;;;;;;;9.10;8.40;;;;;;;18.51;61.57;95958.97;5030777;28;20537;-64
2021/08/24 06:53:47;;;;;;;8.82;7.93;;;;;;;16.55;66.11;95951.69;5030804;28;20450;-64
2021/08/24 06:56:12;;;;;;;8.25;7.55;;;;;;;17.31;64.98;95961.63;5030228;28;20099;-63
2021/08/24 06:58:43;;;;;;;10.20;8.77;;;;;;;17.40;65.11;95959.63;5030519;28;20056;-65
2021/08/24 07:01:17;;;;;;;10.23;9.10;;;;;;;17.35;65.68;95960.63;5032502;28;20109;-64
2021/08/24 07:03:43;;;;;;;8.85;8.15;;;;;;;17.23;64.77;95957.06;5024331;28;20034;-65
2021/08/24 07:06:09;;;;;;;10.60;8.20;;;;;;;17.85;63.56;95959.78;5029679;28;20555;-64
2021/08/24 07:08:34;;;;;;;10.43;8.95;;;;;;;17.29;65.01;95963.81;5030266;28;20048;-65
2021/08/24 07:10:59;;;;;;;12.23;8.55;;;;;;;18.35;62.28;95958.03;5030352;28;20037;-64
2021/08/24 07:13:27;;;;;;;8.68;7.90;;;;;;;17.91;63.33;95955.78;5030430;28;20471;-64
2021/08/24 07:15:53;;;;;;;8.95;8.15;;;;;;;17.92;63.29;95953.88;5030506;28;20151;-63
2021/08/24 07:18:18;;;;;;;8.15;6.68;;;;;;;17.31;64.59;95958.91;5029568;28;20156;-63
2021/08/24 07:20:48;;;;;;;8.05;7.45;;;;;;;18.57;62.30;95919.13;5030157;28;20048;-63
2021/08/24 07:23:13;;;;;;;11.05;7.50;;;;;;;19.59;60.41;95946.91;5030073;28;20042;-63
2021/08/24 07:25:39;;;;;;;8.98;7.50;;;;;;;19.36;59.87;95944.72;5029752;28;20037;-63
2021/08/24 07:28:15;;;;;;;7.47;6.95;;;;;;;19.62;58.68;95949.75;5030815;28;20025;-63
2021/08/24 07:30:48;;;;;;;7.43;6.82;;;;;;;18.81;60.50;95962.28;5030177;28;20117;-63
2021/08/24 07:33:15;;;;;;;6.88;6.40;;;;;;;18.34;63.26;95968.03;5029572;28;20466;-63
2021/08/24 07:35:40;;;;;;;7.68;6.90;;;;;;;19.25;61.18;95959.81;5029718;28;20069;-63
2021/08/24 07:38:06;;;;;;;7.03;6.05;;;;;;;18.21;62.63;95960.25;5029933;28;20078;-64
2021/08/24 07:40:31;;;;;;;5.75;5.35;;;;;;;18.34;62.48;95959.16;5029949;28;20603;-63
2021/08/24 07:42:57;;;;;;;5.22;4.82;;;;;;;17.90;62.68;95967.66;5031909;28;20072;-63
2021/08/24 07:45:23;;;;;;;6.00;5.28;;;;;;;19.30;60.69;95958.81;5029734;28;20128;-63
2021/08/24 07:47:48;;;;;;;6.70;4.88;;;;;;;19.03;59.12;95954.88;5029344;28;20033;-63
2021/08/24 07:50:14;;;;;;;5.95;5.43;;;;;;;18.03;63.38;95965.03;5029248;28;20049;-64
2021/08/24 07:52:40;;;;;;;5.78;5.38;;;;;;;18.48;62.58;95953.47;5028161;28;20491;-64
2021/08/24 07:55:07;;;;;;;6.78;5.45;;;;;;;18.76;60.88;95969.81;5031395;28;20038;-64
2021/08/24 07:57:33;;;;;;;5.32;4.93;;;;;;;19.29;60.38;95970.69;5029198;28;20038;-63
2021/08/24 07:59:58;;;;;;;6.57;5.97;;;;;;;18.93;60.21;95973.06;5029684;28;20049;-63
2021/08/24 08:02:24;;;;;;;6.22;5.72;;;;;;;18.43;61.68;95971.44;5029050;28;20041;-63
2021/08/24 08:04:49;;;;;;;7.40;6.78;;;;;;;18.99;60.78;95976.34;5029022;28;20682;-63
2021/08/24 08:07:16;;;;;;;6.15;5.65;;;;;;;18.65;61.46;95989.09;5031204;28;20626;-63
2021/08/24 08:09:42;;;;;;;6.72;6.13;;;;;;;18.25;61.69;95971.94;5029416;28;20033;-63
2021/08/24 08:12:08;;;;;;;6.22;5.72;;;;;;;17.99;63.44;95986.44;5029446;28;20487;-63
2021/08/24 08:14:33;;;;;;;7.43;6.82;;;;;;;17.87;63.85;95978.31;5029034;28;20038;-63
2021/08/24 08:16:59;;;;;;;6.20;5.70;;;;;;;18.03;62.52;95986.56;5028325;28;20045;-63
2021/08/24 08:19:24;;;;;;;7.00;6.38;;;;;;;17.85;63.25;95989.38;5028983;28;20032;-63
2021/08/24 08:21:50;;;;;;;7.20;6.57;;;;;;;18.96;61.60;95991.28;5031191;28;20017;-63
2021/08/24 08:24:15;;;;;;;7.15;6.45;;;;;;;19.19;59.30;95988.94;5028561;28;20044;-63
2021/08/24 08:26:40;;;;;;;7.43;6.88;;;;;;;19.93;59.64;95988.81;5028645;28;20495;-63
2021/08/24 08:29:11;;;;;;;7.22;6.60;;;;;;;18.77;60.85;95987.56;5028910;28;20049;-64
2021/08/24 08:31:38;;;;;;;7.53;6.82;;;;;;;19.84;58.92;95990.84;5028606;28;20065;-63
2021/08/24 08:34:04;;;;;;;7.55;6.95;;;;;;;19.15;58.96;95987.25;5027280;28;20060;-63
2021/08/24 08:36:30;;;;;;;9.93;7.20;;;;;;;18.66;61.39;95987.19;5028301;28;20040;-63
2021/08/24 08:38:56;;;;;;;7.20;6.60;;;;;;;18.85;61.03;95986.69;5028566;28;20037;-63
2021/08/24 08:41:48;;;;;;;7.00;6.50;;;;;;;19.57;59.69;95976.16;5028719;28;20107;-63
2021/08/24 08:44:38;;;;;;;7.57;6.68;;;;;;;20.20;57.94;95979.91;5028530;28;20053;-63
2021/08/24 08:47:22;;;;;;;8.25;6.95;;;;;;;20.18;59.01;95990.28;5027341;28;20041;-63
2021/08/24 08:50:03;;;;;;;7.80;7.18;;;;;;;19.53;58.44;95991.47;5028347;28;20080;-63
2021/08/24 08:52:40;;;;;;;7.60;6.97;;;;;;;19.53;59.52;95992.25;5028591;28;20100;-63
2021/08/24 08:55:27;;;;;;;7.20;6.55;;;;;;;19.88;57.55;95991.75;5030488;28;20501;-63
2021/08/24 08:58:02;;;;;;;6.53;5.85;;;;;;;18.60;59.83;96000.09;5028385;28;20528;-63
2021/08/24 09:00:45;;;;;;;7.10;6.38;;;;;;;19.36;59.20;95989.81;5028616;28;20042;-63
2021/08/24 09:03:42;;;;;;;6.40;5.93;;;;;;;19.66;59.36;95987.66;5027825;28;20037;-63
2021/08/24 09:06:09;;;;;;;7.57;6.88;;;;;;;20.41;58.06;95981.59;5027871;28;20045;-64
2021/08/24 09:08:35;;;;;;;7.00;6.47;;;;;;;19.68;58.40;95980.00;5028399;28;20048;-63
2021/08/24 09:11:01;;;;;;;7.97;7.28;;;;;;;19.00;61.77;95980.63;5028535;28;20025;-63
2021/08/24 09:13:34;;;;;;;7.22;6.63;;;;;;;19.65;59.84;95986.06;5028340;28;20071;-64
2021/08/24 09:16:17;;;;;;;7.78;7.28;;;;;;;20.54;58.10;95990.47;5029816;28;20415;-64
2021/08/24 09:19:05;;;;;;;8.32;7.63;;;;;;;20.06;58.14;95987.63;5027737;28;20211;-63
2021/08/24 09:21:40;;;;;;;8.15;7.50;;;;;;;21.16;57.02;95980.78;5028162;28;20053;-63
2021/08/24 09:24:18;;;;;;;8.20;7.40;;;;;;;20.75;55.71;95983.69;5027858;28;20099;-64
2021/08/24 09:26:53;;;;;;;9.27;8.45;;;;;;;20.30;55.20;95997.53;5028058;28;20399;-63
2021/08/24 09:29:22;;;;;;;8.38;7.68;;;;;;;20.05;56.03;95996.06;5028142;28;20399;-63
2021/08/24 09:31:48;;;;;;;8.65;7.80;;;;;;;21.25;56.85;95984.88;5026974;28;20065;-63
2021/08/24 09:34:17;;;;;;;8.68;7.88;;;;;;;21.55;54.70;95995.25;5029435;28;20096;-64
2021/08/24 09:36:43;;;;;;;8.52;7.82;;;;;;;22.01;54.70;95985.38;5027950;28;20030;-64
2021/08/24 09:39:09;;;;;;;6.93;6.32;;;;;;;22.11;53.74;95988.66;5028531;28;20034;-64
2021/08/24 09:41:38;;;;;;;8.30;7.50;;;;;;;20.92;54.17;95990.66;5028216;28;20120;-64
2021/08/24 09:44:24;;;;;;;8.15;7.47;;;;;;;20.54;54.80;95995.88;5028021;28;20045;-64
2021/08/24 09:46:53;;;;;;;7.40;6.80;;;;;;;19.64;55.79;95998.78;5027888;28;20029;-64
2021/08/24 09:49:21;;;;;;;7.95;7.28;;;;;;;20.53;57.10;95997.78;5029266;28;20041;-65
2021/08/24 09:51:54;;;;;;;8.05;7.35;;;;;;;19.47;57.39;95997.09;5027729;28;20068;-64
2021/08/24 09:54:20;;;;;;;7.57;6.40;;;;;;;19.33;57.54;95998.56;5027715;28;20046;-64
2021/08/24 09:56:51;;;;;;;7.35;6.75;;;;;;;19.26;57.83;95984.88;5027503;28;20525;-64
2021/08/24 09:59:28;;;;;;;;;;;;;;;20.61;56.68;95996.03;5029263;28;20056;-64
2021/08/24 10:01:54;;;;;;;7.05;6.45;;;;;;;20.89;54.92;95987.88;5031779;28;19924;-64
2021/08/24 10:04:19;;;;;;;6.78;5.75;;;;;;;21.24;55.24;95990.63;5032822;28;20545;-64
2021/08/24 10:06:55;;;;;;;5.13;4.70;;;;;;;20.66;55.10;95987.69;5031571;28;20065;-64
2021/08/24 10:09:28;;;;;;;5.05;4.68;;;;;;;21.31;54.24;95985.41;5031681;28;20025;-64
2021/08/24 10:12:19;;;;;;;4.88;4.57;;;;;;;22.10;54.49;95987.84;5031536;28;20424;-64
2021/08/24 10:14:44;;;;;;;4.40;4.10;;;;;;;22.78;51.91;95987.22;5031405;28;20076;-64
2021/08/24 10:17:23;;;;;;;4.45;4.15;;;;;;;23.45;52.21;95992.16;5030703;28;20487;-65
2021/08/24 10:19:49;;;;;;;6.00;4.28;;;;;;;22.45;47.61;95992.41;5029943;28;20454;-64
2021/08/24 10:22:24;;;;;;;4.20;3.88;;;;;;;23.20;50.32;95999.94;5033298;28;20029;-62
2021/08/24 10:24:59;;;;;;;4.28;3.92;;;;;;;23.64;49.39;95988.56;5031766;28;20044;-62
2021/08/24 10:27:42;;;;;;;3.72;3.47;;;;;;;23.86;51.68;95987.69;5030984;28;20042;-65
2021/08/24 10:30:13;;;;;;;4.10;3.80;;;;;;;23.90;47.90;95995.88;5030909;28;20103;-63
2021/08/24 10:32:53;;;;;;;4.10;3.80;;;;;;;23.69;47.46;95966.50;5030716;28;20060;-63
2021/08/24 10:35:33;;;;;;;3.85;3.55;;;;;;;23.98;47.32;95983.97;5030637;28;20042;-62
2021/08/24 10:37:58;;;;;;;3.58;3.30;;;;;;;24.23;48.71;95984.25;5030895;28;20037;-63
2021/08/24 10:40:42;;;;;;;3.50;3.20;;;;;;;24.90;48.95;95973.28;5031163;28;20395;-64
2021/08/24 10:43:10;;;;;;;3.90;3.55;;;;;;;25.33;45.58;95978.28;5032625;28;20018;-64
2021/08/24 10:46:16;;;;;;;3.47;3.28;;;;;;;25.69;46.56;95973.84;5030458;28;20526;-64
2021/08/24 10:48:42;;;;;;;2.80;2.70;;;;;;;25.89;44.61;95971.63;5021668;28;20048;-63
2021/08/24 10:51:14;;;;;;;4.00;3.70;;;;;;;25.53;45.81;95987.75;5030592;28;20041;-63
2021/08/24 10:53:55;;;;;;;5.80;3.60;;;;;;;25.38;43.33;95986.88;5030688;28;20150;-63
2021/08/24 10:56:31;;;;;;;3.83;2.97;;;;;;;25.31;44.08;95994.25;5030104;28;20034;-64
2021/08/24 10:59:10;;;;;;;3.53;3.25;;;;;;;25.71;43.53;95981.66;5030438;28;20365;-63
2021/08/24 11:02:06;;;;;;;3.53;3.22;;;;;;;26.52;42.26;95991.38;5030863;28;20028;-64
2021/08/24 11:04:38;;;;;;;3.17;2.97;;;;;;;26.63;40.75;95986.72;5029981;28;20028;-64
2021/08/24 11:07:38;;;;;;;3.63;3.35;;;;;;;27.57;43.70;95980.09;5032177;28;20028;-64
2021/08/24 11:10:22;;;;;;;3.70;3.15;;;;;;;27.64;40.79;95985.53;5030498;28;20530;-64
2021/08/24 11:13:08;;;;;;;3.00;2.80;;;;;;;28.39;41.37;95983.34;5030959;28;20134;-64
2021/08/24 11:15:57;;;;;;;7.75;2.75;;;;;;;28.70;40.71;95984.34;5030124;28;20029;-64
2021/08/24 11:18:48;;;;;;;2.92;2.72;;;;;;;28.73;42.13;95982.78;5001082;28;20091;-64
2021/08/24 11:21:38;;;;;;;2.90;2.70;;;;;;;28.32;40.80;95988.84;5030342;28;20618;-64
2021/08/24 11:24:09;;;;;;;3.25;3.05;;;;;;;28.79;36.65;95983.91;5046031;28;20041;-64
2021/08/24 11:26:38;;;;;;;2.35;2.25;;;;;;;29.25;40.90;95980.06;5029685;28;20700;-64
2021/08/24 11:29:23;;;;;;;3.20;2.42;;;;;;;29.66;38.65;95979.31;5030407;28;20047;-65
2021/08/24 11:31:55;;;;;;;2.90;2.70;;;;;;;29.45;33.43;95978.28;5029356;28;20120;-64
2021/08/24 11:34:37;;;;;;;2.78;2.58;;;;;;;29.71;38.74;95978.84;5031248;28;20026;-64
2021/08/24 11:37:28;;;;;;;2.20;2.10;;;;;;;30.22;38.70;95982.59;5030352;28;20045;-64
2021/08/24 11:40:01;;;;;;;2.47;2.28;;;;;;;30.55;34.27;95989.22;5010796;28;20129;-64
2021/08/24 11:42:34;;;;;;;3.22;2.50;;;;;;;29.99;38.08;95984.03;5029848;28;20038;-64
2021/08/24 11:45:05;;;;;;;2.22;2.05;;;;;;;30.70;39.10;95987.06;5029551;28;20034;-64